Time;durP1;ratioP1;P1;durP2;ratioP2;P2;SDS_P1;SDS_P2;PMS_P1;PMS_P2;Temp;Humidity;BMP_temperature;BMP_pressure;BME280_temperature;BME280_humidity;BME280_pressure;Samples;Min_cycle;Max_cycle;Signal;HPM_P1;HPM_P2
2021/08/19 00:02:01;;;;;;;;;3.00;3.00;;;;;19.04;67.76;100887.28;5077461;28;45302;-63
2021/08/19 00:04:27;;;;;;;;;3.00;3.00;;;;;19.01;68.25;100891.00;5076913;28;45824;-61
2021/08/19 00:06:52;;;;;;;;;5.00;4.00;;;;;19.03;68.17;100891.75;5076721;27;45358;-62
2021/08/19 00:09:18;;;;;;;;;3.33;2.67;;;;;19.02;67.93;100890.03;5077156;28;45332;-62
2021/08/19 00:11:43;;;;;;;;;2.00;2.00;;;;;19.01;68.03;100884.81;5077271;27;45340;-63
2021/08/19 00:14:09;;;;;;;;;3.00;3.00;;;;;18.96;68.07;100883.31;5077134;28;46260;-64
2021/08/19 00:16:34;;;;;;;;;5.00;3.00;;;;;18.96;68.33;100882.44;5041668;28;45245;-61
2021/08/19 00:18:59;;;;;;;;;2.00;2.00;;;;;18.92;68.22;100884.50;5058665;28;45341;-62
2021/08/19 00:21:25;;;;;;;;;2.75;2.50;;;;;18.90;68.14;100881.09;5077104;27;45203;-62
2021/08/19 00:23:50;;;;;;;;;3.00;3.00;;;;;18.87;68.10;100883.09;5076723;28;46028;-62
2021/08/19 00:26:16;;;;;;;;;4.25;3.00;;;;;18.82;68.42;100870.94;5076673;28;45322;-62
2021/08/19 00:28:41;;;;;;;;;3.00;3.00;;;;;18.81;68.40;100874.56;5076819;28;45353;-61
2021/08/19 00:31:08;;;;;;;;;3.00;3.00;;;;;18.82;68.53;100870.13;5076352;27;45471;-63
2021/08/19 00:33:34;;;;;;;;;2.33;2.33;;;;;18.80;68.72;100872.03;5076568;28;45288;-63
2021/08/19 00:35:59;;;;;;;;;2.00;2.00;;;;;18.80;68.53;100856.03;5076538;27;45318;-63
2021/08/19 00:38:24;;;;;;;;;4.25;3.00;;;;;18.82;68.39;100857.63;5076701;27;45375;-64
2021/08/19 00:40:50;;;;;;;;;2.75;2.75;;;;;18.84;68.76;100862.88;5076772;28;45232;-62
2021/08/19 00:43:17;;;;;;;;;3.75;3.00;;;;;18.80;68.73;100854.22;5058092;28;47115;-62
2021/08/19 00:45:43;;;;;;;;;4.00;3.25;;;;;18.78;68.68;100850.81;5076716;28;45373;-62
2021/08/19 00:48:08;;;;;;;;;5.75;4.00;;;;;18.74;68.69;100851.16;5058257;28;45401;-59
2021/08/19 00:50:34;;;;;;;;;3.25;3.25;;;;;18.76;68.91;100849.22;5076738;27;45313;-59
2021/08/19 00:53:00;;;;;;;;;2.00;2.00;;;;;18.72;68.99;100848.56;5076508;28;46004;-62
2021/08/19 00:55:26;;;;;;;;;4.50;2.75;;;;;18.71;68.64;100852.19;5076246;28;45357;-61
2021/08/19 00:57:53;;;;;;;;;2.25;2.25;;;;;18.71;68.19;100856.69;5076345;28;45248;-61
2021/08/19 01:00:19;;;;;;;;;5.00;3.00;;;;;18.69;68.15;100855.00;5076738;28;45596;-62
2021/08/19 01:02:46;;;;;;;;;2.00;2.00;;;;;18.67;68.11;100842.72;5076296;27;46303;-61
2021/08/19 01:05:16;;;;;;;;;3.25;3.25;;;;;18.67;67.84;100842.72;5076645;28;45456;-63
2021/08/19 01:07:44;;;;;;;;;3.50;3.50;;;;;18.67;67.88;100848.91;5076434;28;45264;-63
2021/08/19 01:10:10;;;;;;;;;3.00;3.00;;;;;18.66;67.20;100847.22;5076512;28;45330;-63
2021/08/19 01:12:35;;;;;;;;;4.00;2.50;;;;;18.59;67.46;100842.41;5057675;28;46373;-63
2021/08/19 01:15:01;;;;;;;;;2.75;2.75;;;;;18.66;67.06;100849.00;5075959;28;45355;-64
2021/08/19 01:17:29;;;;;;;;;4.00;2.25;;;;;18.67;66.90;100842.72;5075897;28;45454;-64
2021/08/19 01:19:54;;;;;;;;;2.00;2.00;;;;;18.70;67.08;100847.84;5076444;28;45268;-64
2021/08/19 01:22:23;;;;;;;;;2.25;2.25;;;;;18.66;66.83;100844.56;5057355;28;47002;-62
2021/08/19 01:24:48;;;;;;;;;2.25;2.25;;;;;18.65;66.62;100849.97;5075850;28;45367;-61
2021/08/19 01:27:19;;;;;;;;;2.00;2.00;;;;;18.65;66.80;100848.19;5076189;27;45267;-62
2021/08/19 01:29:47;;;;;;;;;2.00;2.00;;;;;18.63;66.92;100834.09;5076455;28;45236;-63
2021/08/19 01:32:14;;;;;;;;;3.00;2.00;;;;;18.67;66.67;100834.72;5074823;27;45323;-61
2021/08/19 01:34:39;;;;;;;;;4.00;3.00;;;;;18.66;66.43;100838.34;5075602;28;45481;-62
2021/08/19 01:37:05;;;;;;;;;2.75;2.75;;;;;18.65;67.20;100831.31;5075831;28;45376;-63
2021/08/19 01:39:31;;;;;;;;;4.00;3.75;;;;;18.65;67.55;100823.31;5076148;28;45552;-63
2021/08/19 01:41:57;;;;;;;;;5.00;3.75;;;;;18.63;67.34;100835.91;5075209;28;45734;-63
2021/08/19 01:44:23;;;;;;;;;4.50;2.50;;;;;18.68;67.34;100833.78;5075683;27;45442;-63
2021/08/19 01:47:00;;;;;;;;;4.00;3.00;;;;;18.68;67.42;100831.09;5075591;27;45402;-62
2021/08/19 01:49:26;;;;;;;;;6.50;2.25;;;;;18.64;67.55;100825.16;5075867;27;45251;-63
2021/08/19 01:51:52;;;;;;;;;3.00;2.75;;;;;18.61;67.33;100825.38;5075520;28;46509;-62
2021/08/19 01:54:17;;;;;;;;;4.25;3.00;;;;;18.48;67.44;100806.72;5075401;28;45332;-60
2021/08/19 01:56:43;;;;;;;;;5.00;3.00;;;;;18.54;67.09;100832.06;5075996;28;45244;-61
2021/08/19 01:59:08;;;;;;;;;4.00;4.00;;;;;18.51;67.37;100837.59;5075740;27;45680;-63
2021/08/19 02:01:33;;;;;;;;;3.25;3.25;;;;;18.47;67.18;100834.31;5075538;27;46124;-63
2021/08/19 02:03:59;;;;;;;;;3.00;3.00;;;;;18.46;67.47;100837.94;5075434;27;45331;-62
2021/08/19 02:06:24;;;;;;;;;3.50;3.25;;;;;18.44;67.45;100825.69;5075427;28;45411;-62
2021/08/19 02:08:49;;;;;;;;;3.00;3.00;;;;;18.45;67.36;100835.38;5075630;27;45355;-63
2021/08/19 02:11:16;;;;;;;;;3.67;3.33;;;;;18.43;67.51;100822.19;5074221;27;47224;-65
2021/08/19 02:13:42;;;;;;;;;3.25;3.25;;;;;18.39;67.15;100818.84;5073946;28;45524;-63
2021/08/19 02:16:07;;;;;;;;;2.00;2.00;;;;;18.43;67.28;100826.63;5075358;27;45401;-64
2021/08/19 02:18:33;;;;;;;;;2.00;2.00;;;;;18.40;67.34;100825.06;5075434;28;45527;-62
2021/08/19 02:20:58;;;;;;;;;4.00;4.00;;;;;18.42;67.38;100820.47;5075115;28;46439;-62
2021/08/19 02:23:23;;;;;;;;;2.33;2.33;;;;;18.42;67.10;100825.81;5075382;28;45359;-63
2021/08/19 02:25:49;;;;;;;;;3.00;3.00;;;;;18.38;67.33;100819.81;5075241;28;45395;-62
2021/08/19 02:28:16;;;;;;;;;4.25;4.25;;;;;18.38;67.40;100819.81;5075405;28;45296;-63
2021/08/19 02:30:41;;;;;;;;;3.00;3.00;;;;;18.45;66.90;100820.25;5073625;28;48325;-63
2021/08/19 02:33:06;;;;;;;;;3.00;3.00;;;;;18.45;66.90;100817.59;5074697;27;45323;-63
2021/08/19 02:35:32;;;;;;;;;3.00;3.00;;;;;18.46;67.01;100818.44;5075168;28;45266;-62
2021/08/19 02:38:00;;;;;;;;;4.00;3.00;;;;;18.45;66.95;100812.25;5075239;28;45308;-63
2021/08/19 02:40:27;;;;;;;;;3.00;3.00;;;;;18.44;67.21;100807.91;5074795;28;45644;-63
2021/08/19 02:42:53;;;;;;;;;2.75;2.75;;;;;18.43;66.79;100800.00;5074617;28;45382;-63
2021/08/19 02:45:18;;;;;;;;;3.00;3.00;;;;;18.38;67.18;100803.84;5075389;28;45381;-63
2021/08/19 02:47:44;;;;;;;;;5.00;2.50;;;;;18.36;67.09;100797.78;5075010;28;45666;-63
2021/08/19 02:50:10;;;;;;;;;2.33;2.33;;;;;18.35;67.10;100803.22;5056519;28;46180;-63
2021/08/19 02:52:35;;;;;;;;;3.50;3.50;;;;;18.32;67.09;100798.94;5075408;28;45355;-62
2021/08/19 02:55:02;;;;;;;;;2.25;2.25;;;;;18.31;67.12;100805.22;5078262;28;45249;-62
2021/08/19 02:57:27;;;;;;;;;3.00;3.00;;;;;18.24;67.16;100799.50;5078555;27;45216;-59
2021/08/19 02:59:53;;;;;;;;;4.00;3.25;;;;;18.14;67.29;100785.13;5078078;27;45207;-61
2021/08/19 03:02:18;;;;;;;;;3.00;3.00;;;;;18.22;67.00;100792.56;5078683;28;45271;-66
2021/08/19 03:04:44;;;;;;;;;2.00;2.00;;;;;18.21;67.23;100793.50;5078370;27;45305;-60
2021/08/19 03:07:09;;;;;;;;;9.00;9.00;;;;;18.22;67.04;100789.88;5059647;28;45635;-62
2021/08/19 03:09:35;;;;;;;;;3.75;2.00;;;;;18.24;67.18;100795.97;5077882;27;46852;-64
2021/08/19 03:12:00;;;;;;;;;4.00;3.50;;;;;18.25;67.34;100792.34;5077903;27;45273;-63
2021/08/19 03:14:26;;;;;;;;;3.25;2.25;;;;;18.25;67.17;100787.88;5059810;28;45357;-62
2021/08/19 03:16:51;;;;;;;;;4.00;3.25;;;;;18.24;66.84;100787.97;5078495;27;45546;-59
2021/08/19 03:19:17;;;;;;;;;2.75;2.75;;;;;18.28;66.88;100783.31;5078107;27;46409;-59
2021/08/19 03:21:43;;;;;;;;;3.25;3.25;;;;;18.29;67.03;100788.50;5077738;27;45378;-63
2021/08/19 03:24:08;;;;;;;;;3.00;3.00;;;;;18.30;66.87;100789.38;5077847;27;45331;-63
2021/08/19 03:26:34;;;;;;;;;3.25;3.25;;;;;18.33;66.81;100786.50;5077793;27;45343;-64
2021/08/19 03:28:59;;;;;;;;;4.25;2.00;;;;;18.31;66.91;100797.25;5077651;28;46597;-65
2021/08/19 03:31:25;;;;;;;;;3.25;3.25;;;;;18.30;66.70;100789.38;5077736;28;45335;-63
2021/08/19 03:33:51;;;;;;;;;2.75;2.50;;;;;18.30;66.77;100790.22;5077994;27;45314;-62
2021/08/19 03:36:16;;;;;;;;;5.00;3.75;;;;;18.29;66.84;100782.34;5077724;28;45251;-62
2021/08/19 03:38:43;;;;;;;;;5.00;2.00;;;;;18.29;66.98;100782.34;5077373;28;46025;-62
2021/08/19 03:41:08;;;;;;;;;3.50;3.50;;;;;18.30;66.91;100789.38;5077609;27;45346;-63
2021/08/19 03:43:34;;;;;;;;;6.00;2.50;;;;;18.26;66.78;100788.72;5077654;27;45312;-62
2021/08/19 03:45:59;;;;;;;;;2.75;2.75;;;;;18.20;67.09;100781.16;5077625;28;45481;-63
2021/08/19 03:48:24;;;;;;;;;3.00;2.25;;;;;18.22;67.09;100787.22;5077386;27;46082;-63
2021/08/19 03:50:50;;;;;;;;;3.75;3.00;;;;;18.19;66.83;100782.13;5077817;27;45385;-62
2021/08/19 03:53:17;;;;;;;;;5.00;4.00;;;;;18.17;67.07;100779.56;5077404;27;45482;-62
2021/08/19 03:55:43;;;;;;;;;2.00;2.00;;;;;18.15;67.05;100781.50;5077769;27;45470;-63
2021/08/19 03:58:09;;;;;;;;;4.25;2.00;;;;;18.16;67.17;100790.31;5059055;27;45410;-62
2021/08/19 04:00:34;;;;;;;;;5.25;3.25;;;;;18.13;67.14;100787.88;5077102;28;45408;-62
2021/08/19 04:03:00;;;;;;;;;3.00;3.00;;;;;18.08;67.21;100781.06;5077377;28;45273;-63
2021/08/19 04:05:25;;;;;;;;;3.00;2.00;;;;;18.04;67.44;100773.41;5077304;27;45330;-63
2021/08/19 04:07:51;;;;;;;;;4.50;4.00;;;;;18.05;67.60;100781.25;5077144;27;45324;-62
2021/08/19 04:10:18;;;;;;;;;4.75;2.75;;;;;18.02;67.54;100780.59;5077103;28;45373;-62
2021/08/19 04:12:43;;;;;;;;;3.50;3.50;;;;;18.03;67.72;100782.34;5077211;28;45408;-62
2021/08/19 04:15:09;;;;;;;;;3.00;3.00;;;;;17.99;67.18;100781.66;5077255;27;45249;-61
2021/08/19 04:17:34;;;;;;;;;3.00;3.00;;;;;17.98;67.94;100784.41;5076934;28;46644;-63
2021/08/19 04:20:00;;;;;;;;;3.00;2.00;;;;;17.95;67.76;100783.66;5076974;28;45383;-61
2021/08/19 04:22:25;;;;;;;;;4.00;3.00;;;;;17.91;67.79;100771.53;5058727;28;45319;-61
2021/08/19 04:24:51;;;;;;;;;3.00;3.00;;;;;17.91;68.09;100771.53;5059270;28;45376;-59
2021/08/19 04:27:16;;;;;;;;;5.25;4.00;;;;;17.90;67.78;100774.31;5076548;27;45330;-59
2021/08/19 04:29:41;;;;;;;;;4.50;3.25;;;;;17.88;68.06;100774.38;5076879;28;45334;-61
2021/08/19 04:32:07;;;;;;;;;3.00;3.00;;;;;17.90;67.83;100774.31;5058510;28;45349;-60
2021/08/19 04:34:33;;;;;;;;;4.25;4.25;;;;;17.86;67.80;100765.66;5058740;28;45432;-61
2021/08/19 04:36:58;;;;;;;;;6.00;6.00;;;;;17.86;67.75;100763.00;5076431;28;46312;-62
2021/08/19 04:39:23;;;;;;;;;4.00;4.00;;;;;17.89;67.89;100765.44;5076976;27;45213;-61
2021/08/19 04:41:50;;;;;;;;;3.00;3.00;;;;;17.90;68.21;100769.81;5076709;28;45300;-61
2021/08/19 04:44:16;;;;;;;;;4.25;3.50;;;;;17.93;67.87;100760.78;5076724;28;45322;-60
2021/08/19 04:46:42;;;;;;;;;5.25;4.75;;;;;17.98;67.85;100771.09;5076380;28;45536;-63
2021/08/19 04:49:07;;;;;;;;;3.00;3.00;;;;;18.00;68.04;100772.75;5076247;27;45264;-61
2021/08/19 04:51:34;;;;;;;;;5.25;4.75;;;;;18.00;67.96;100766.53;5058088;28;45284;-64
2021/08/19 04:54:00;;;;;;;;;6.00;4.00;;;;;18.05;67.71;100780.44;5076587;28;45527;-62
2021/08/19 04:56:27;;;;;;;;;4.25;4.25;;;;;18.04;67.67;100782.22;5076548;27;45352;-62
2021/08/19 04:58:53;;;;;;;;;4.00;4.00;;;;;18.02;67.68;100785.94;5076416;27;45419;-62
2021/08/19 05:01:19;;;;;;;;;6.75;5.50;;;;;18.05;67.70;100791.06;5076298;27;45346;-62
2021/08/19 05:03:44;;;;;;;;;6.25;4.75;;;;;18.05;67.64;100796.41;5076325;27;45549;-62
2021/08/19 05:06:10;;;;;;;;;5.50;4.25;;;;;18.01;67.61;100790.41;5075695;27;45392;-62
2021/08/19 05:08:35;;;;;;;;;5.00;4.50;;;;;18.02;67.53;100781.47;5075789;27;45249;-62
2021/08/19 05:11:00;;;;;;;;;5.50;4.25;;;;;18.05;67.67;100791.91;5076098;28;45323;-62
2021/08/19 05:13:26;;;;;;;;;3.50;3.50;;;;;18.08;67.69;100794.38;5076587;28;45507;-61
2021/08/19 05:15:51;;;;;;;;;10.25;9.50;;;;;18.08;67.54;100794.38;5075338;27;46445;-62
2021/08/19 05:18:16;;;;;;;;;5.75;5.00;;;;;18.07;67.57;100794.47;5075636;28;45264;-60
2021/08/19 05:20:42;;;;;;;;;5.25;4.75;;;;;18.08;67.31;100804.16;5075989;27;45321;-63
2021/08/19 05:23:07;;;;;;;;;6.75;5.75;;;;;18.05;67.34;100801.72;5057906;28;45275;-60
2021/08/19 05:25:33;;;;;;;;;6.75;6.00;;;;;18.04;67.27;100794.69;5076063;27;45530;-62
2021/08/19 05:27:58;;;;;;;;;11.00;8.00;;;;;18.08;67.14;100802.34;5075986;27;45420;-59
2021/08/19 05:30:24;;;;;;;;;8.50;5.25;;;;;18.07;66.85;100794.47;5058109;28;45339;-62
2021/08/19 05:32:49;;;;;;;;;7.50;6.00;;;;;18.07;67.08;100797.97;5076225;27;45524;-63
2021/08/19 05:35:14;;;;;;;;;6.00;5.25;;;;;18.03;67.18;100791.16;5057385;28;46865;-62
2021/08/19 05:37:40;;;;;;;;;4.75;4.00;;;;;18.10;67.08;100799.59;5057477;28;45354;-61
2021/08/19 05:40:06;;;;;;;;;5.00;4.75;;;;;18.08;67.22;100804.16;5075906;28;45367;-62
2021/08/19 05:42:32;;;;;;;;;8.50;5.50;;;;;18.12;67.54;100805.66;5075988;28;45458;-62
2021/08/19 05:44:57;;;;;;;;;6.50;5.25;;;;;18.12;67.16;100813.66;5075621;28;45490;-60
2021/08/19 05:47:23;;;;;;;;;10.00;6.00;;;;;18.11;67.31;100806.63;5075546;28;45427;-60
2021/08/19 05:49:48;;;;;;;;;6.00;5.25;;;;;18.15;67.17;100802.78;5074217;28;45368;-63
2021/08/19 05:52:17;;;;;;;;;6.75;5.00;;;;;18.20;66.78;100805.13;5075504;28;45565;-62
2021/08/19 05:54:42;;;;;;;;;7.25;6.50;;;;;18.23;66.66;100807.56;5075169;27;45637;-62
2021/08/19 05:57:09;;;;;;;;;5.00;5.00;;;;;18.28;66.60;100809.94;5056924;28;45259;-63
2021/08/19 05:59:35;;;;;;;;;5.00;5.00;;;;;18.30;66.66;100805.34;5074005;27;45464;-63
2021/08/19 06:02:00;;;;;;;;;6.25;6.25;;;;;18.31;66.54;100807.06;5057055;28;45440;-62
2021/08/19 06:04:25;;;;;;;;;9.00;7.00;;;;;18.31;66.39;100801.72;5075466;27;45785;-62
2021/08/19 06:06:50;;;;;;;;;4.50;4.50;;;;;18.29;66.14;100804.47;5056801;28;45391;-63
2021/08/19 06:09:16;;;;;;;;;5.00;5.00;;;;;18.26;66.05;100794.03;5075274;27;45318;-63
2021/08/19 06:11:41;;;;;;;;;7.25;6.25;;;;;18.30;66.04;100802.69;5075491;28;45389;-63
2021/08/19 06:14:07;;;;;;;;;4.00;4.00;;;;;18.28;65.96;100807.25;5074868;28;45666;-63
2021/08/19 06:16:32;;;;;;;;;7.25;6.00;;;;;18.31;65.80;100799.91;5075014;28;45431;-63
2021/08/19 06:19:00;;;;;;;;;5.00;3.50;;;;;18.32;65.74;100804.25;5075434;27;45370;-64
2021/08/19 06:21:25;;;;;;;;;8.00;6.00;;;;;18.37;66.13;100801.31;5075306;28;45576;-65
2021/08/19 06:23:51;;;;;;;;;6.00;5.50;;;;;18.37;66.18;100790.66;5074588;27;46550;-61
2021/08/19 06:26:16;;;;;;;;;5.00;5.00;;;;;18.46;65.93;100805.13;5074896;28;45363;-61
2021/08/19 06:28:41;;;;;;;;;6.25;6.25;;;;;18.43;65.79;100803.53;5076950;27;45294;-67
2021/08/19 06:31:07;;;;;;;;;4.50;4.50;;;;;18.43;65.74;100800.88;5078496;27;45612;-63
2021/08/19 06:33:33;;;;;;;;;6.50;4.00;;;;;18.44;66.11;100799.91;5077855;27;46254;-60
2021/08/19 06:35:58;;;;;;;;;7.00;6.00;;;;;18.47;66.03;100798.81;5078308;27;45236;-65
2021/08/19 06:38:23;;;;;;;;;4.00;4.00;;;;;18.48;65.75;100801.41;5078294;27;45197;-64
2021/08/19 06:40:49;;;;;;;;;6.00;4.50;;;;;18.47;65.42;100797.03;5078607;27;45325;-64
2021/08/19 06:43:20;;;;;;;;;7.00;5.75;;;;;18.52;65.69;100794.91;5078336;28;45311;-74
2021/08/19 06:45:45;;;;;;;;;10.00;7.00;;;;;18.51;65.34;100787.00;5077915;27;45420;-63
2021/08/19 06:48:11;;;;;;;;;6.75;5.00;;;;;18.65;65.80;100802.00;5077850;27;45786;-61
2021/08/19 06:50:36;;;;;;;;;5.75;5.25;;;;;18.65;65.21;100788.69;5078255;27;45458;-68
2021/08/19 06:53:01;;;;;;;;;7.00;5.25;;;;;18.71;65.40;100792.75;5071878;27;45469;-74
2021/08/19 06:55:28;;;;;;;;;4.25;4.25;;;;;18.78;65.39;100794.84;5080917;27;45331;-68
2021/08/19 06:57:54;;;;;;;;;11.00;8.00;;;;;18.87;65.22;100797.81;5092287;27;45526;-65
2021/08/19 07:00:19;;;;;;;;;7.50;5.75;;;;;18.88;65.00;100800.38;5077659;27;45583;-75
2021/08/19 07:02:45;;;;;;;;;7.00;7.00;;;;;18.96;64.92;100802.47;5076469;27;46527;-66
2021/08/19 07:05:10;;;;;;;;;6.25;5.75;;;;;18.96;64.36;100802.47;5044957;28;45727;-69
2021/08/19 07:07:36;;;;;;;;;5.00;5.00;;;;;18.93;64.23;100798.25;5076408;28;45528;-64
2021/08/19 07:10:04;;;;;;;;;7.75;7.50;;;;;18.96;63.84;100808.69;5058740;28;45425;-67
2021/08/19 07:12:29;;;;;;;;;6.00;6.00;;;;;18.98;64.02;100801.44;5076864;27;46471;-67
2021/08/19 07:14:55;;;;;;;;;8.00;6.00;;;;;19.04;64.24;100808.13;5058066;28;45286;-64
2021/08/19 07:17:21;;;;;;;;;9.00;5.25;;;;;19.03;63.61;100802.94;5076774;27;45393;-61
2021/08/19 07:19:46;;;;;;;;;7.00;6.50;;;;;19.06;63.89;100798.22;5076368;28;45564;-62
2021/08/19 07:22:11;;;;;;;;;8.25;7.25;;;;;19.15;63.94;100795.88;5071223;28;46497;-64
2021/08/19 07:24:37;;;;;;;;;6.75;6.75;;;;;19.23;63.38;100793.50;5076687;27;45379;-64
2021/08/19 07:27:03;;;;;;;;;6.50;6.00;;;;;19.36;62.60;100793.41;5058821;28;45445;-62
2021/08/19 07:29:29;;;;;;;;;9.50;6.25;;;;;19.35;62.57;100784.56;5077047;27;45570;-67
2021/08/19 07:31:54;;;;;;;;;8.00;6.00;;;;;19.52;62.29;100788.63;5074777;27;46219;-65
2021/08/19 07:34:19;;;;;;;;;10.25;7.00;;;;;19.65;62.16;100799.25;5076561;27;45411;-67
2021/08/19 07:36:45;;;;;;;;;7.00;6.75;;;;;19.73;61.54;100789.81;5077321;27;45358;-67
2021/08/19 07:39:10;;;;;;;;;7.50;6.00;;;;;19.79;60.99;100778.66;5042172;28;45339;-66
2021/08/19 07:41:36;;;;;;;;;8.00;7.00;;;;;19.87;61.42;100783.44;5077285;28;46120;-67
2021/08/19 07:44:02;;;;;;;;;6.00;6.00;;;;;19.90;60.68;100786.72;5077506;27;45349;-67
2021/08/19 07:46:28;;;;;;;;;7.50;6.75;;;;;19.95;60.78;100787.22;5077220;28;45345;-68
2021/08/19 07:48:56;;;;;;;;;5.00;5.00;;;;;19.94;60.25;100785.53;5059259;28;45488;-68
2021/08/19 07:51:22;;;;;;;;;8.50;6.25;;;;;20.02;60.32;100794.78;5077154;28;45611;-65
2021/08/19 07:53:47;;;;;;;;;6.00;6.00;;;;;20.05;60.60;100794.53;5077107;28;45365;-66
2021/08/19 07:56:12;;;;;;;;;9.75;6.50;;;;;20.02;59.91;100779.63;5076279;28;45439;-66
2021/08/19 07:58:38;;;;;;;;;8.25;7.50;;;;;19.99;59.79;100782.53;5075713;27;45634;-67
2021/08/19 08:01:04;;;;;;;;;9.00;6.75;;;;;20.02;60.28;100792.09;5076706;28;45362;-68
2021/08/19 08:03:29;;;;;;;;;9.25;7.00;;;;;20.05;60.35;100797.19;5059120;28;45375;-67
2021/08/19 08:05:54;;;;;;;;;5.75;5.75;;;;;20.02;60.04;100792.09;5076662;28;45257;-69
2021/08/19 08:08:20;;;;;;;;;7.75;7.00;;;;;19.99;60.16;100794.03;5075867;28;45395;-68
2021/08/19 08:10:45;;;;;;;;;8.50;6.25;;;;;20.00;60.78;100794.91;5076716;28;45443;-67
2021/08/19 08:13:12;;;;;;;;;7.50;7.00;;;;;20.07;60.43;100798.81;5076805;27;45377;-68
2021/08/19 08:15:38;;;;;;;;;6.75;6.75;;;;;20.17;60.06;100804.28;5077132;27;45471;-66
2021/08/19 08:18:05;;;;;;;;;11.00;7.00;;;;;20.21;60.01;100803.09;5077302;27;45566;-68
2021/08/19 08:20:33;;;;;;;;;10.00;7.00;;;;;20.18;60.00;100803.31;5058487;27;46852;-68
2021/08/19 08:22:59;;;;;;;;;9.75;8.00;;;;;20.14;60.12;100807.16;5076643;28;45391;-66
2021/08/19 08:25:25;;;;;;;;;8.75;7.00;;;;;20.09;60.50;100804.88;5076651;27;45249;-69
2021/08/19 08:28:09;;;;;;;;;7.50;7.25;;;;;20.10;59.99;100808.38;5076977;27;45366;-64
2021/08/19 08:30:40;;;;;;;;;10.25;7.75;;;;;20.03;59.92;100807.16;5086436;27;46622;-63
2021/08/19 08:33:07;;;;;;;;;9.00;8.00;;;;;20.03;59.89;100804.47;5097230;27;45811;-63
2021/08/19 08:35:38;;;;;;;;;9.00;8.00;;;;;20.04;60.43;100808.84;5097397;27;45327;-68
2021/08/19 08:38:13;;;;;;;;;7.50;7.50;;;;;20.04;59.87;100798.16;5096959;27;45461;-68
2021/08/19 08:40:41;;;;;;;;;8.25;8.25;;;;;20.03;59.89;100815.16;5096616;27;46069;-67
2021/08/19 08:43:07;;;;;;;;;9.50;7.50;;;;;19.98;60.13;100815.53;5078259;27;45385;-60
2021/08/19 08:45:36;;;;;;;;;10.00;8.50;;;;;19.92;60.25;100816.00;5096998;27;45390;-63
2021/08/19 08:48:04;;;;;;;;;6.75;6.75;;;;;19.97;60.46;100816.50;5078250;27;45404;-67
2021/08/19 08:50:32;;;;;;;;;8.00;5.50;;;;;20.01;60.42;100815.28;5077497;27;45941;-66
2021/08/19 08:52:58;;;;;;;;;7.00;6.00;;;;;20.03;59.76;100824.03;5096513;27;45581;-67
2021/08/19 08:55:24;;;;;;;;;10.00;7.00;;;;;20.02;60.11;100816.13;5096747;27;45413;-67
2021/08/19 08:57:50;;;;;;;;;7.00;7.00;;;;;20.00;60.30;100810.91;5096628;27;45486;-67
2021/08/19 09:00:16;;;;;;;;;8.25;8.00;;;;;19.97;59.84;100819.16;5077433;27;46950;-66
2021/08/19 09:02:44;;;;;;;;;7.50;7.50;;;;;19.88;60.22;100831.34;5096080;27;45504;-68
2021/08/19 09:05:15;;;;;;;;;10.00;6.50;;;;;19.82;60.50;100823.81;5061690;27;45244;-66
2021/08/19 09:07:41;;;;;;;;;8.25;7.00;;;;;19.79;60.39;100826.72;5096482;27;45389;-67
2021/08/19 09:10:10;;;;;;;;;9.25;6.00;;;;;19.78;60.32;100831.22;5112543;27;47150;-70
2021/08/19 09:12:40;;;;;;;;;7.00;7.00;;;;;19.78;60.10;100833.88;5096749;27;45218;-68
2021/08/19 09:15:11;;;;;;;;;5.75;5.75;;;;;19.76;60.08;100829.59;5095365;27;45380;-68
2021/08/19 09:17:44;;;;;;;;;6.75;6.00;;;;;19.76;59.75;100834.94;5078659;27;45467;-70
2021/08/19 09:20:12;;;;;;;;;7.25;5.00;;;;;19.75;59.77;100830.56;5077760;27;47099;-68
2021/08/19 09:22:54;;;;;;;;;8.25;7.00;;;;;19.72;59.56;100837.00;5096703;27;45407;-64
2021/08/19 09:25:38;;;;;;;;;5.00;5.00;;;;;19.67;60.07;100834.66;5096010;27;45250;-66
2021/08/19 09:28:30;;;;;;;;;6.00;5.75;;;;;19.73;60.12;100832.50;5096736;27;45344;-67
2021/08/19 09:31:06;;;;;;;;;5.75;5.75;;;;;19.75;59.91;100835.91;5084741;27;46535;-69
2021/08/19 09:33:35;;;;;;;;;4.75;4.75;;;;;19.76;59.40;100837.63;5096278;27;45402;-66
2021/08/19 09:36:06;;;;;;;;;5.75;5.75;;;;;19.80;59.20;100834.63;5096257;27;45220;-67
2021/08/19 09:38:49;;;;;;;;;6.25;6.00;;;;;19.92;59.71;100829.34;5096073;27;45453;-65
2021/08/19 09:41:18;;;;;;;;;8.75;6.75;;;;;20.02;59.22;100821.47;5077395;27;48215;-68
2021/08/19 09:43:50;;;;;;;;;5.00;5.00;;;;;20.09;58.81;100822.69;5095588;27;45422;-70
2021/08/19 09:46:17;;;;;;;;;5.50;5.50;;;;;20.08;58.83;100826.34;5095752;27;45397;-66
2021/08/19 09:48:44;;;;;;;;;9.50;8.00;;;;;20.08;58.57;100823.66;5095982;27;45559;-68
2021/08/19 09:51:10;;;;;;;;;4.75;4.75;;;;;20.07;58.41;100819.28;5094442;27;48246;-66
2021/08/19 09:53:44;;;;;;;;;8.50;6.50;;;;;20.05;58.63;100813.22;5096299;27;45303;-68
2021/08/19 09:56:13;;;;;;;;;4.50;4.00;;;;;19.98;58.59;100820.88;5095917;27;45433;-65
2021/08/19 09:58:40;;;;;;;;;9.50;6.00;;;;;19.95;58.64;100819.28;5096224;27;45270;-68
2021/08/19 10:01:06;;;;;;;;;7.00;5.50;;;;;19.94;58.48;100822.91;5096076;27;45432;-66
2021/08/19 10:03:31;;;;;;;;;7.25;5.00;;;;;19.90;58.81;100813.44;5095732;27;45383;-68
2021/08/19 10:05:57;;;;;;;;;3.00;3.00;;;;;19.88;58.58;100814.50;5095754;27;45621;-67
2021/08/19 10:08:23;;;;;;;;;4.75;4.75;;;;;19.89;59.10;100813.53;5077231;27;45308;-67
2021/08/19 10:10:52;;;;;;;;;8.25;6.00;;;;;19.84;58.94;100816.53;5077216;27;46856;-68
2021/08/19 10:13:18;;;;;;;;;5.50;5.25;;;;;19.83;59.67;100817.50;5095565;27;45459;-68
2021/08/19 10:15:47;;;;;;;;;5.50;5.50;;;;;19.89;59.43;100810.88;5077316;27;45412;-68
2021/08/19 10:18:17;;;;;;;;;8.00;6.25;;;;;19.92;59.67;100819.50;5095601;27;45584;-68
2021/08/19 10:20:47;;;;;;;;;6.00;6.00;;;;;19.83;59.21;100798.81;5095375;27;46265;-66
2021/08/19 10:23:14;;;;;;;;;8.00;7.00;;;;;19.97;59.43;100813.81;5076410;27;45669;-67
2021/08/19 10:25:40;;;;;;;;;5.00;4.25;;;;;19.92;59.49;100818.66;5077199;27;45313;-68
2021/08/19 10:28:22;;;;;;;;;6.50;5.00;;;;;19.88;59.19;100817.16;5095483;27;45354;-68
2021/08/19 10:30:52;;;;;;;;;5.50;5.00;;;;;19.87;59.59;100804.78;5095189;27;46114;-67
2021/08/19 10:33:35;;;;;;;;;7.50;5.50;;;;;19.95;59.18;100815.75;5095083;27;45292;-69
2021/08/19 10:36:23;;;;;;;;;7.00;5.00;;;;;19.98;59.46;100815.53;5076782;27;45411;-69
2021/08/19 10:38:48;;;;;;;;;7.50;4.50;;;;;20.00;59.26;100810.91;5095463;27;45244;-68
2021/08/19 10:41:32;;;;;;;;;7.00;5.00;;;;;20.00;58.92;100809.09;5095151;27;45261;-68
2021/08/19 10:44:04;;;;;;;;;7.50;6.00;;;;;19.97;59.19;100817.34;5095041;27;45287;-70
2021/08/19 10:46:43;;;;;;;;;3.00;3.00;;;;;19.99;58.84;100812.72;5095180;27;45338;-68
2021/08/19 10:49:39;;;;;;;;;6.75;4.00;;;;;20.08;59.11;100816.53;5095623;27;45244;-65
2021/08/19 10:52:07;;;;;;;;;7.50;6.00;;;;;20.14;58.75;100816.03;5094992;27;45378;-68
2021/08/19 10:54:46;;;;;;;;;6.25;5.50;;;;;20.17;58.39;100819.44;5094939;27;45505;-67
2021/08/19 10:57:32;;;;;;;;;7.50;5.00;;;;;20.17;58.85;100817.66;5076804;27;45416;-66
2021/08/19 10:59:59;;;;;;;;;7.75;7.25;;;;;20.18;58.89;100818.47;5076880;27;45196;-66
2021/08/19 11:02:42;;;;;;;;;5.50;5.50;;;;;20.37;58.75;100817.91;5076187;27;46400;-68
2021/08/19 11:05:29;;;;;;;;;5.00;5.00;;;;;20.57;58.26;100827.00;5095081;27;45327;-68
2021/08/19 11:07:59;;;;;;;;;3.25;3.25;;;;;20.77;57.71;100816.59;5076707;27;45247;-68
2021/08/19 11:10:27;;;;;;;;;6.25;5.75;;;;;20.75;57.32;100819.38;5094748;27;45284;-69
2021/08/19 11:12:59;;;;;;;;;6.50;5.00;;;;;20.78;56.98;100823.66;5094720;27;46203;-66
2021/08/19 11:15:25;;;;;;;;;4.00;4.00;;;;;20.77;56.67;100813.91;5079008;27;45366;-68
2021/08/19 11:17:52;;;;;;;;;6.00;6.00;;;;;20.80;56.93;100814.53;5098305;27;45302;-68
2021/08/19 11:20:23;;;;;;;;;5.00;5.00;;;;;20.81;56.94;100813.56;5098447;27;45582;-67
2021/08/19 11:23:28;;;;;;;;;5.00;4.50;;;;;20.87;56.45;100818.41;5097823;27;46834;-65
2021/08/19 11:26:00;;;;;;;;;6.25;5.50;;;;;20.90;56.67;100811.13;5028941;27;45341;-67